Time;durP1;ratioP1;P1;durP2;ratioP2;P2;SDS_P1;SDS_P2;PMS_P1;PMS_P2;Temp;Humidity;BMP_temperature;BMP_pressure;BME280_temperature;BME280_humidity;BME280_pressure;Samples;Min_cycle;Max_cycle;Signal;HPM_P1;HPM_P2
2021/05/25 00:01:14;;;;;;;6.25;3.47;;;;;;;12.92;84.46;98463.47;4968253;28;20034;-59
2021/05/25 00:03:40;;;;;;;5.05;3.08;;;;;;;13.07;83.87;98462.66;4953117;28;20031;-60
2021/05/25 00:06:05;;;;;;;5.25;2.97;;;;;;;12.91;84.59;98451.44;4977136;28;20035;-60
2021/05/25 00:08:31;;;;;;;4.65;2.67;;;;;;;13.09;84.27;98462.50;4963408;28;20022;-59
2021/05/25 00:10:57;;;;;;;5.22;3.33;;;;;;;13.00;84.77;98460.88;4978832;28;20547;-59
2021/05/25 00:13:22;;;;;;;6.10;3.53;;;;;;;12.95;84.08;98463.97;4976300;28;20576;-58
2021/05/25 00:15:52;;;;;;;6.43;3.47;;;;;;;12.88;84.88;98468.22;4972638;28;20041;-60
2021/05/25 00:18:18;;;;;;;6.78;3.60;;;;;;;12.91;84.40;98459.25;4962363;28;20022;-59
2021/05/25 00:20:43;;;;;;;5.57;3.38;;;;;;;12.97;84.29;98455.97;4977458;28;20030;-59
2021/05/25 00:23:09;;;;;;;7.10;4.18;;;;;;;12.59;84.34;98406.88;4972654;28;20605;-59
2021/05/25 00:25:35;;;;;;;7.35;4.50;;;;;;;12.82;85.06;98463.66;4978544;28;20030;-59
2021/05/25 00:28:00;;;;;;;7.78;4.88;;;;;;;12.47;85.17;98421.25;4974807;28;20063;-59
2021/05/25 00:30:25;;;;;;;10.02;5.35;;;;;;;12.72;85.80;98453.34;4978455;28;20465;-59
2021/05/25 00:32:51;;;;;;;8.55;5.60;;;;;;;12.71;84.86;98436.09;4980146;28;20029;-58
2021/05/25 00:35:17;;;;;;;7.47;5.47;;;;;;;12.80;84.95;98455.19;4977364;28;20030;-59
2021/05/25 00:37:42;;;;;;;8.60;6.22;;;;;;;12.68;85.46;98447.63;4981192;28;20058;-59
2021/05/25 00:40:10;;;;;;;8.77;6.88;;;;;;;12.79;84.83;98445.69;4976717;28;20882;-59
2021/05/25 00:42:36;;;;;;;8.82;6.47;;;;;;;12.74;84.59;98442.75;4985224;28;20036;-59
2021/05/25 00:45:04;;;;;;;10.23;7.65;;;;;;;12.59;84.23;98437.38;4981075;28;20035;-59
2021/05/25 00:47:31;;;;;;;9.02;7.15;;;;;;;12.66;84.46;98433.94;4959054;28;20034;-59
2021/05/25 00:50:09;;;;;;;7.22;4.97;;;;;;;12.61;84.48;98430.19;4982800;28;20465;-58
2021/05/25 00:52:38;;;;;;;5.90;4.10;;;;;;;12.68;84.40;98447.63;4988014;28;20030;-59
2021/05/25 00:55:05;;;;;;;6.95;4.03;;;;;;;12.73;84.52;98439.34;4985412;28;20138;-58
2021/05/25 00:57:31;;;;;;;6.47;3.80;;;;;;;12.73;83.36;98428.09;4983066;28;20377;-59
2021/05/25 00:59:56;;;;;;;6.40;3.83;;;;;;;12.63;83.80;98433.47;4968071;28;20030;-59
2021/05/25 01:02:21;;;;;;;6.45;4.40;;;;;;;12.64;84.14;98435.09;4981356;28;20682;-59
2021/05/25 01:04:47;;;;;;;5.20;3.50;;;;;;;12.38;83.74;98394.34;4978771;28;20033;-59
2021/05/25 01:07:13;;;;;;;5.50;3.22;;;;;;;12.54;83.50;98419.63;4982452;28;20034;-59
2021/05/25 01:09:39;;;;;;;7.82;3.42;;;;;;;12.50;82.74;98418.28;4963826;28;20022;-59
2021/05/25 01:12:06;;;;;;;6.30;2.95;;;;;;;12.50;82.53;98433.94;4996508;28;20382;-60
2021/05/25 01:14:38;;;;;;;6.32;2.97;;;;;;;12.19;83.12;98390.22;4985061;28;20034;-59
2021/05/25 01:17:04;;;;;;;6.13;2.80;;;;;;;12.42;83.44;98433.94;4980287;28;20042;-60
2021/05/25 01:19:29;;;;;;;5.00;3.15;;;;;;;12.16;83.26;98394.97;4981063;28;20026;-59
2021/05/25 01:21:56;;;;;;;4.88;2.80;;;;;;;12.14;84.06;98434.22;4984606;28;20560;-59
2021/05/25 01:24:31;;;;;;;5.45;2.80;;;;;;;12.10;84.33;98433.72;4984854;28;20250;-59
2021/05/25 01:27:05;;;;;;;5.35;3.05;;;;;;;11.90;85.70;98425.34;4978795;28;20019;-59
2021/05/25 01:29:31;;;;;;;6.60;3.05;;;;;;;12.17;85.60;98433.88;4980237;28;20037;-59
2021/05/25 01:31:57;;;;;;;6.35;3.00;;;;;;;12.17;85.19;98430.47;4978602;28;20027;-60
2021/05/25 01:34:22;;;;;;;5.72;3.17;;;;;;;12.29;84.87;98437.00;4977011;28;20412;-59
2021/05/25 01:36:48;;;;;;;5.53;3.30;;;;;;;12.30;84.93;98434.25;4981941;28;20030;-59
2021/05/25 01:39:14;;;;;;;5.70;3.75;;;;;;;12.26;84.80;98432.09;4979496;28;20049;-60
2021/05/25 01:41:40;;;;;;;7.53;4.35;;;;;;;12.08;84.40;98411.38;4976779;28;20026;-60
2021/05/25 01:44:06;;;;;;;8.88;4.40;;;;;;;12.13;83.93;98409.09;4980993;28;20041;-60
2021/05/25 01:46:31;;;;;;;10.75;4.03;;;;;;;12.40;83.29;98443.72;4978895;28;20027;-60
2021/05/25 01:48:56;;;;;;;6.15;3.63;;;;;;;12.31;83.26;98435.06;4981417;28;20081;-59
2021/05/25 01:51:22;;;;;;;6.40;3.25;;;;;;;12.25;83.27;98435.72;4982229;28;20105;-60
2021/05/25 01:53:47;;;;;;;6.43;3.20;;;;;;;12.19;83.15;98436.31;4965594;28;20042;-59
2021/05/25 01:56:14;;;;;;;5.60;3.22;;;;;;;12.25;83.27;98441.72;4954077;28;20038;-59
2021/05/25 01:58:39;;;;;;;5.50;3.30;;;;;;;12.25;83.73;98441.72;4980125;28;20034;-59
2021/05/25 02:01:10;;;;;;;5.20;3.05;;;;;;;12.11;84.12;98424.91;4978810;28;20030;-59
2021/05/25 02:03:36;;;;;;;7.40;3.05;;;;;;;12.05;83.48;98430.75;4969072;28;20057;-60
2021/05/25 02:06:03;;;;;;;7.68;3.08;;;;;;;11.93;83.77;98390.31;4978152;28;20417;-59
2021/05/25 02:08:28;;;;;;;5.60;2.95;;;;;;;12.25;83.41;98443.53;4979726;28;20727;-60
2021/05/25 02:10:56;;;;;;;5.20;3.30;;;;;;;11.97;83.99;98391.63;4978952;28;20031;-59
2021/05/25 02:13:33;;;;;;;6.55;3.20;;;;;;;11.80;83.52;98376.91;4979155;28;20703;-60
2021/05/25 02:16:05;;;;;;;5.22;3.15;;;;;;;11.73;84.46;98381.94;4981200;28;20101;-59
2021/05/25 02:18:33;;;;;;;7.22;3.63;;;;;;;12.11;84.69;98437.94;4993860;28;20109;-58
2021/05/25 02:21:01;;;;;;;6.00;3.58;;;;;;;11.83;85.31;98389.63;4966591;28;20084;-59
2021/05/25 02:23:27;;;;;;;6.28;3.67;;;;;;;11.53;86.14;98379.56;4976436;28;20100;-59
2021/05/25 02:25:53;;;;;;;5.47;3.33;;;;;;;11.84;86.51;98414.69;4982127;28;20042;-59
2021/05/25 02:28:19;;;;;;;9.10;3.30;;;;;;;11.49;86.15;98378.25;4962993;28;20469;-59
2021/05/25 02:30:45;;;;;;;6.43;3.10;;;;;;;11.44;86.10;98372.69;4980947;28;20118;-59
2021/05/25 02:33:12;;;;;;;6.30;3.45;;;;;;;11.62;86.32;98408.25;4976064;28;20501;-59
2021/05/25 02:35:39;;;;;;;5.95;3.33;;;;;;;11.73;86.14;98406.19;4998270;28;20798;-59
2021/05/25 02:38:06;;;;;;;6.63;3.13;;;;;;;11.78;86.03;98412.72;4975627;28;20030;-59
2021/05/25 02:40:32;;;;;;;5.20;2.85;;;;;;;11.88;85.00;98421.22;4979015;28;20042;-60
2021/05/25 02:42:58;;;;;;;6.30;2.70;;;;;;;11.64;85.20;98399.31;4973896;28;20037;-59
2021/05/25 02:45:24;;;;;;;5.28;3.17;;;;;;;11.44;84.77;98356.28;4992938;28;20069;-58
2021/05/25 02:47:49;;;;;;;7.15;2.78;;;;;;;11.79;84.74;98409.13;4980998;28;20018;-59
2021/05/25 02:50:15;;;;;;;6.40;3.00;;;;;;;11.81;84.17;98388.94;4977821;28;20050;-60
2021/05/25 02:52:43;;;;;;;5.78;3.03;;;;;;;11.87;85.07;98406.56;4981215;28;20031;-60
2021/05/25 02:55:14;;;;;;;7.07;3.00;;;;;;;11.61;84.92;98357.13;4974962;28;20034;-59
2021/05/25 02:57:40;;;;;;;5.10;2.72;;;;;;;11.50;84.24;98353.88;4979577;28;20042;-59
2021/05/25 03:00:07;;;;;;;6.03;3.03;;;;;;;11.58;84.53;98363.50;4982493;28;20068;-59
2021/05/25 03:02:33;;;;;;;5.30;2.50;;;;;;;11.80;83.94;98406.38;4978559;28;20022;-59
2021/05/25 03:04:58;;;;;;;4.90;2.67;;;;;;;11.49;84.50;98346.22;4981423;28;20592;-60
2021/05/25 03:07:24;;;;;;;5.07;2.83;;;;;;;11.67;83.95;98372.97;4977876;28;20029;-59
2021/05/25 03:09:49;;;;;;;4.60;2.75;;;;;;;11.86;83.67;98410.13;4981850;28;20022;-59
2021/05/25 03:12:15;;;;;;;5.18;2.85;;;;;;;11.77;83.97;98396.25;4975053;28;20041;-59
2021/05/25 03:14:40;;;;;;;5.65;2.95;;;;;;;11.74;84.13;98387.00;4980118;28;20310;-59
2021/05/25 03:17:06;;;;;;;5.63;3.50;;;;;;;11.88;83.84;98409.03;4983217;28;20022;-59
2021/05/25 03:19:31;;;;;;;6.47;3.00;;;;;;;11.59;83.91;98370.34;4982350;28;20759;-59
2021/05/25 03:21:57;;;;;;;5.03;2.83;;;;;;;11.77;83.83;98416.28;4984696;28;20881;-60
2021/05/25 03:24:22;;;;;;;6.72;2.92;;;;;;;11.73;83.99;98410.59;4982547;28;20038;-59
2021/05/25 03:26:48;;;;;;;5.07;3.20;;;;;;;11.59;83.85;98414.59;4986739;28;20039;-59
2021/05/25 03:29:14;;;;;;;5.55;3.08;;;;;;;11.59;83.76;98419.81;4981833;28;20052;-59
2021/05/25 03:31:39;;;;;;;5.15;3.20;;;;;;;11.65;83.52;98410.56;4991101;28;20465;-59
2021/05/25 03:34:05;;;;;;;5.85;3.10;;;;;;;11.52;83.71;98411.00;4983664;28;20068;-59
2021/05/25 03:36:30;;;;;;;6.05;3.33;;;;;;;11.51;83.46;98412.75;4973441;28;20022;-59
2021/05/25 03:38:56;;;;;;;6.18;3.92;;;;;;;11.60;82.77;98413.63;4975741;28;20045;-59
2021/05/25 03:41:21;;;;;;;7.35;3.97;;;;;;;11.47;82.94;98388.00;4982292;28;20022;-59
2021/05/25 03:43:47;;;;;;;5.95;4.10;;;;;;;11.38;82.74;98367.31;4985058;28;20037;-60
2021/05/25 03:46:13;;;;;;;6.63;4.22;;;;;;;11.29;83.00;98372.47;4980786;28;20034;-59
2021/05/25 03:48:38;;;;;;;6.28;4.20;;;;;;;11.47;83.34;98389.81;4985180;28;20853;-59
2021/05/25 03:51:04;;;;;;;6.65;3.92;;;;;;;11.43;83.42;98401.50;4978078;28;20124;-59
2021/05/25 03:53:31;;;;;;;6.18;3.60;;;;;;;11.51;83.19;98398.94;4981340;28;20033;-59
2021/05/25 03:58:51;;;;;;;6.90;3.60;;;;;;;11.54;82.50;98407.25;4975906;28;20074;-59
2021/05/25 04:01:19;;;;;;;5.57;3.30;;;;;;;11.55;82.84;98405.44;4982466;28;20057;-59
2021/05/25 04:03:45;;;;;;;8.30;4.50;;;;;;;11.60;82.88;98408.41;4978770;28;20493;-58
2021/05/25 04:06:11;;;;;;;7.03;4.35;;;;;;;11.60;82.54;98415.41;4985577;28;20022;-59
2021/05/25 04:08:36;;;;;;;8.98;4.18;;;;;;;11.60;81.97;98405.81;4983984;28;20173;-60
2021/05/25 04:11:02;;;;;;;9.88;4.10;;;;;;;11.45;82.34;98383.94;4978898;28;20816;-59
2021/05/25 04:13:28;;;;;;;8.45;4.25;;;;;;;11.60;82.71;98410.22;4967052;28;20034;-60
2021/05/25 04:15:54;;;;;;;5.93;3.92;;;;;;;11.39;83.08;98402.78;4979680;28;20041;-59
2021/05/25 04:18:21;;;;;;;5.68;3.40;;;;;;;11.20;84.16;98411.63;4961923;28;20042;-59
2021/05/25 04:20:47;;;;;;;7.50;4.22;;;;;;;10.93;85.56;98411.63;4981690;28;20116;-59
2021/05/25 04:23:12;;;;;;;6.18;3.90;;;;;;;11.16;85.54;98427.53;4958342;28;20554;-60
2021/05/25 04:25:38;;;;;;;6.40;3.70;;;;;;;11.22;85.40;98404.47;4984580;28;20023;-59
2021/05/25 04:28:04;;;;;;;6.05;3.10;;;;;;;11.44;84.67;98431.75;4981557;28;20062;-60
2021/05/25 04:30:30;;;;;;;5.15;2.80;;;;;;;11.38;84.30;98427.19;4968078;28;20018;-60
2021/05/25 04:32:55;;;;;;;4.90;2.45;;;;;;;11.11;84.75;98421.16;4982973;28;20038;-59
2021/05/25 04:35:21;;;;;;;5.43;2.10;;;;;;;11.19;84.52;98423.81;4983869;28;20030;-59
2021/05/25 04:37:46;;;;;;;4.82;1.95;;;;;;;11.24;83.43;98410.34;4974912;28;20472;-59
2021/05/25 04:40:12;;;;;;;4.18;1.90;;;;;;;10.97;83.34;98380.91;4963192;28;20042;-59
2021/05/25 04:42:38;;;;;;;5.55;1.83;;;;;;;10.79;83.49;98349.75;4978458;28;20448;-60
2021/05/25 04:45:05;;;;;;;4.00;1.90;;;;;;;10.92;83.52;98373.56;4978864;28;20511;-60
2021/05/25 04:47:30;;;;;;;4.47;1.88;;;;;;;11.33;83.37;98418.06;4977207;28;20077;-59
2021/05/25 04:49:56;;;;;;;5.22;1.80;;;;;;;11.37;82.98;98420.34;4977370;28;20030;-59
2021/05/25 04:52:21;;;;;;;4.20;1.70;;;;;;;11.27;83.52;98417.84;4976509;28;20356;-59
2021/05/25 04:54:47;;;;;;;5.00;1.92;;;;;;;11.23;83.67;98419.94;4982498;28;20044;-59
2021/05/25 04:57:12;;;;;;;5.20;1.90;;;;;;;11.13;83.54;98430.47;4976910;28;21039;-59
2021/05/25 04:59:38;;;;;;;6.50;2.58;;;;;;;10.93;83.64;98383.00;4977765;28;20038;-59
2021/05/25 05:02:04;;;;;;;6.07;2.47;;;;;;;11.29;83.65;98428.91;4975237;28;20045;-59
2021/05/25 05:04:29;;;;;;;5.75;2.30;;;;;;;11.25;83.87;98432.81;4972896;28;20545;-60
2021/05/25 05:06:54;;;;;;;5.35;2.42;;;;;;;11.07;83.70;98389.41;4982001;28;20138;-59
2021/05/25 05:09:20;;;;;;;4.93;2.00;;;;;;;11.37;83.25;98433.34;4982476;28;20034;-60
2021/05/25 05:11:45;;;;;;;3.80;1.80;;;;;;;11.38;82.59;98437.59;4976147;28;20040;-58
2021/05/25 05:14:11;;;;;;;4.35;1.95;;;;;;;11.46;82.42;98440.22;4983517;28;20034;-58
2021/05/25 05:16:36;;;;;;;5.20;2.20;;;;;;;11.40;83.82;98439.06;4983757;28;20065;-59
2021/05/25 05:19:02;;;;;;;4.68;2.28;;;;;;;11.26;83.56;98398.81;4980929;28;20030;-59
2021/05/25 05:21:27;;;;;;;5.95;2.20;;;;;;;11.60;83.25;98441.47;4983603;28;20076;-60
2021/05/25 05:23:54;;;;;;;4.30;2.38;;;;;;;11.51;83.43;98424.97;4982048;28;20030;-59
2021/05/25 05:26:20;;;;;;;4.93;2.35;;;;;;;11.71;82.64;98441.19;4982668;28;20349;-59
2021/05/25 05:28:46;;;;;;;5.07;2.20;;;;;;;11.43;82.98;98399.72;5003640;28;20038;-59
2021/05/25 05:31:11;;;;;;;5.70;2.30;;;;;;;11.61;83.53;98432.66;4971239;28;20089;-59
2021/05/25 05:33:37;;;;;;;5.70;2.70;;;;;;;11.72;82.83;98435.00;4981171;28;20038;-59
2021/05/25 05:36:03;;;;;;;4.35;2.10;;;;;;;11.79;82.43;98445.59;4977900;28;20035;-59
2021/05/25 05:38:28;;;;;;;5.40;2.28;;;;;;;11.79;82.03;98443.00;4976509;28;20065;-60
2021/05/25 05:41:02;;;;;;;5.43;1.92;;;;;;;11.76;82.19;98451.94;4976702;28;20042;-58
2021/05/25 05:43:28;;;;;;;6.00;1.90;;;;;;;11.52;82.38;98416.19;4978066;28;20537;-59
2021/05/25 05:45:53;;;;;;;4.10;1.90;;;;;;;11.66;81.91;98446.03;4980312;28;20057;-59
2021/05/25 05:48:19;;;;;;;5.50;1.83;;;;;;;11.53;82.14;98460.28;4984380;28;20041;-59
2021/05/25 05:50:44;;;;;;;5.47;2.53;;;;;;;11.58;82.76;98459.84;4980648;28;20487;-60
2021/05/25 05:53:10;;;;;;;4.45;1.63;;;;;;;11.57;82.34;98457.38;4978374;28;20181;-59
2021/05/25 05:55:35;;;;;;;5.95;1.80;;;;;;;11.47;82.72;98457.50;4994787;28;20129;-60
2021/05/25 05:58:01;;;;;;;10.15;3.08;;;;;;;11.31;83.43;98430.38;4979015;28;20085;-59
2021/05/25 06:00:26;;;;;;;6.93;1.80;;;;;;;11.50;82.08;98458.00;4978232;28;20049;-59
2021/05/25 06:02:52;;;;;;;6.10;1.85;;;;;;;11.59;82.06;98471.06;4975328;28;20026;-60
2021/05/25 06:05:17;;;;;;;4.18;1.50;;;;;;;11.64;80.72;98467.03;4979613;28;20390;-59
2021/05/25 06:07:42;;;;;;;6.13;1.58;;;;;;;11.65;80.81;98460.84;4978125;28;20037;-59
2021/05/25 06:10:08;;;;;;;4.55;1.83;;;;;;;11.82;79.48;98466.13;4979656;28;20522;-59
2021/05/25 06:12:34;;;;;;;4.53;1.60;;;;;;;11.92;79.24;98477.31;4978773;28;20030;-59
2021/05/25 06:14:59;;;;;;;3.83;1.60;;;;;;;11.97;79.39;98480.22;4978836;28;20042;-60
2021/05/25 06:17:25;;;;;;;3.50;1.33;;;;;;;11.88;78.23;98461.13;4978928;28;20030;-59
2021/05/25 06:19:51;;;;;;;3.55;1.58;;;;;;;11.93;79.04;98484.94;4978880;28;20038;-60
2021/05/25 06:22:21;;;;;;;4.10;1.50;;;;;;;11.88;79.48;98481.13;4977043;28;20034;-59
2021/05/25 06:24:47;;;;;;;4.75;1.70;;;;;;;11.57;78.45;98442.56;4970023;28;20034;-58
2021/05/25 06:27:12;;;;;;;5.80;1.85;;;;;;;11.74;78.28;98474.75;4979102;28;20538;-60
2021/05/25 06:29:38;;;;;;;4.72;1.60;;;;;;;11.80;78.25;98491.53;4976585;28;20465;-59
2021/05/25 06:32:03;;;;;;;4.70;1.70;;;;;;;11.79;79.30;98479.47;4977026;28;20522;-60
2021/05/25 06:34:29;;;;;;;4.28;1.50;;;;;;;11.85;80.42;98481.47;4978363;28;20061;-59
2021/05/25 06:36:55;;;;;;;4.40;1.70;;;;;;;11.80;80.09;98481.91;4961275;28;20026;-59
2021/05/25 06:39:21;;;;;;;4.63;1.85;;;;;;;11.82;78.52;98466.94;4971741;28;20069;-60
2021/05/25 06:41:46;;;;;;;4.28;1.67;;;;;;;11.82;78.88;98479.16;4974465;28;20034;-59
2021/05/25 06:44:12;;;;;;;12.57;3.17;;;;;;;11.91;77.86;98484.28;4994193;28;20550;-60
2021/05/25 06:46:37;;;;;;;6.55;3.70;;;;;;;11.52;77.76;98440.44;4977797;28;20042;-59
2021/05/25 06:49:03;;;;;;;8.65;2.88;;;;;;;11.66;78.73;98469.47;4976235;28;20149;-59
2021/05/25 06:51:28;;;;;;;8.75;4.25;;;;;;;11.74;77.10;98472.94;4978434;28;20073;-60
2021/05/25 06:53:54;;;;;;;6.05;1.90;;;;;;;11.78;77.05;98486.47;4974574;28;20045;-59
2021/05/25 06:56:20;;;;;;;5.10;1.80;;;;;;;11.50;76.46;98438.97;4979714;28;20105;-59
2021/05/25 06:58:45;;;;;;;4.35;1.42;;;;;;;11.81;76.71;98490.53;4981095;28;20440;-60
2021/05/25 07:01:11;;;;;;;3.95;1.50;;;;;;;11.81;76.12;98488.78;4979767;28;20121;-58
2021/05/25 07:03:36;;;;;;;3.50;1.45;;;;;;;11.84;76.36;98487.63;4977948;28;20038;-59
2021/05/25 07:06:02;;;;;;;4.22;1.50;;;;;;;11.87;77.59;98495.16;4977676;28;20039;-60
2021/05/25 07:08:27;;;;;;;3.92;1.60;;;;;;;11.85;78.44;98497.09;4978805;28;20135;-60
2021/05/25 07:10:52;;;;;;;7.55;2.05;;;;;;;11.89;78.71;98503.63;4975161;28;20023;-60
2021/05/25 07:13:18;;;;;;;6.45;2.50;;;;;;;11.83;79.40;98491.22;4979042;28;20358;-60
2021/05/25 07:15:43;;;;;;;5.70;2.63;;;;;;;11.90;79.63;98505.28;4972864;28;20034;-60
2021/05/25 07:18:09;;;;;;;6.43;2.55;;;;;;;11.96;79.74;98506.47;4978524;28;20037;-60
2021/05/25 07:20:34;;;;;;;6.45;2.10;;;;;;;11.96;78.91;98506.47;4962384;28;20026;-59
2021/05/25 07:23:00;;;;;;;10.02;2.53;;;;;;;11.80;77.93;98510.56;4979992;28;20030;-59
2021/05/25 07:25:26;;;;;;;5.97;2.22;;;;;;;11.88;76.65;98510.63;4971185;28;20027;-60
2021/05/25 07:27:53;;;;;;;5.65;2.00;;;;;;;11.82;77.92;98506.03;4979503;28;20542;-60
2021/05/25 07:30:19;;;;;;;8.20;1.98;;;;;;;11.66;76.89;98490.31;4978543;28;20093;-60
2021/05/25 07:32:44;;;;;;;5.25;1.90;;;;;;;11.90;78.75;98500.06;4978608;28;20572;-59
2021/05/25 07:35:11;;;;;;;5.65;1.40;;;;;;;11.77;74.67;98468.38;4974629;28;20101;-60
2021/05/25 07:37:38;;;;;;;5.50;1.50;;;;;;;12.01;77.44;98491.16;5001498;28;20126;-60
2021/05/25 07:40:04;;;;;;;4.00;1.70;;;;;;;12.20;75.37;98490.91;4974239;28;20030;-60
2021/05/25 07:42:30;;;;;;;5.25;1.35;;;;;;;13.04;71.37;98509.16;4981206;28;20034;-60
2021/05/25 07:44:56;;;;;;;5.18;1.30;;;;;;;13.24;70.94;98463.47;4978289;28;20031;-60
2021/05/25 07:47:22;;;;;;;4.97;1.38;;;;;;;13.78;70.92;98485.56;4974914;28;20046;-59
2021/05/25 07:49:47;;;;;;;3.83;1.10;;;;;;;14.23;66.25;98494.53;4982189;28;20077;-60
2021/05/25 07:52:14;;;;;;;3.08;1.02;;;;;;;14.64;64.18;98502.22;4977723;28;20049;-59
2021/05/25 07:54:40;;;;;;;5.70;1.20;;;;;;;15.01;64.52;98502.44;4977372;28;20438;-59
2021/05/25 07:57:06;;;;;;;4.25;1.10;;;;;;;15.35;60.07;98497.56;4974744;28;20045;-59
2021/05/25 07:59:31;;;;;;;3.00;1.02;;;;;;;15.31;60.91;98492.84;4980136;28;20022;-59
2021/05/25 08:01:57;;;;;;;3.42;0.90;;;;;;;15.47;58.37;98507.59;4966003;28;20069;-60
2021/05/25 08:04:23;;;;;;;2.80;0.90;;;;;;;15.60;58.66;98502.56;4980466;28;20037;-60
2021/05/25 08:06:49;;;;;;;4.22;0.90;;;;;;;15.68;58.86;98504.28;4983453;28;20041;-60
2021/05/25 08:09:14;;;;;;;2.30;0.80;;;;;;;15.70;57.28;98512.78;4977236;28;20031;-60
2021/05/25 08:11:40;;;;;;;2.90;0.90;;;;;;;16.20;54.84;98513.06;4981226;28;20076;-60
2021/05/25 08:14:07;;;;;;;7.80;1.00;;;;;;;16.32;54.18;98496.69;4983966;28;20022;-60
2021/05/25 08:16:34;;;;;;;5.75;1.08;;;;;;;16.89;55.83;98515.25;4981828;28;20035;-60
2021/05/25 08:21:29;;;;;;;3.80;0.73;;;;;;;17.03;50.93;98526.69;4985229;28;20042;-60
2021/05/25 08:23:54;;;;;;;2.78;0.90;;;;;;;16.88;51.50;98524.97;4979147;28;20029;-59
2021/05/25 08:26:24;;;;;;;2.55;0.70;;;;;;;17.18;50.26;98537.16;4980003;28;20038;-60
2021/05/25 08:28:50;;;;;;;1.63;0.60;;;;;;;17.42;48.21;98533.31;4983214;28;20061;-59
2021/05/25 08:31:15;;;;;;;1.73;0.60;;;;;;;17.38;46.24;98538.13;4977935;28;20484;-60
2021/05/25 08:33:41;;;;;;;2.05;0.80;;;;;;;17.68;47.20;98541.34;4975708;28;20034;-60
2021/05/25 08:36:08;;;;;;;3.67;0.90;;;;;;;17.73;45.58;98501.34;4980998;28;20030;-60
2021/05/25 08:38:33;;;;;;;3.08;0.80;;;;;;;18.21;45.91;98543.50;4997069;28;20037;-61
2021/05/25 08:41:00;;;;;;;2.97;0.65;;;;;;;18.17;45.84;98537.03;4984378;28;20030;-60
2021/05/25 08:43:26;;;;;;;2.83;0.80;;;;;;;18.38;44.47;98548.44;4997649;28;20076;-60
2021/05/25 08:45:51;;;;;;;3.22;1.00;;;;;;;18.97;45.53;98539.94;4981879;28;20054;-60
2021/05/25 08:48:18;;;;;;;2.65;0.70;;;;;;;19.54;43.56;98545.63;4966513;28;20037;-59
2021/05/25 08:50:43;;;;;;;5.45;0.77;;;;;;;19.51;38.62;98526.75;4963212;28;20077;-60
2021/05/25 08:53:09;;;;;;;4.68;0.75;;;;;;;19.62;39.80;98541.97;4982135;28;20030;-60
2021/05/25 08:55:36;;;;;;;3.40;0.77;;;;;;;19.87;39.88;98544.78;4983708;28;20092;-60
2021/05/25 08:58:03;;;;;;;2.30;0.70;;;;;;;20.30;40.77;98546.13;4992805;28;20050;-60
2021/05/25 09:00:29;;;;;;;2.72;0.70;;;;;;;20.68;35.89;98538.25;5011550;28;20117;-60
2021/05/25 09:02:56;;;;;;;2.53;0.60;;;;;;;20.81;36.29;98537.34;4974549;28;20384;-57
2021/05/25 09:05:22;;;;;;;2.05;0.65;;;;;;;20.68;35.41;98538.25;4982559;28;20040;-58
2021/05/25 09:07:52;;;;;;;2.67;0.90;;;;;;;20.83;34.51;98529.22;4981426;28;20022;-60
2021/05/25 09:10:21;;;;;;;2.47;0.80;;;;;;;20.90;33.81;98541.34;4978856;28;21018;-60
2021/05/25 09:12:57;;;;;;;4.93;1.08;;;;;;;20.96;34.30;98546.81;4981388;28;20037;-60
2021/05/25 09:15:37;;;;;;;2.65;0.57;;;;;;;20.81;31.03;98510.09;4979975;28;20517;-59
2021/05/25 09:18:11;;;;;;;3.65;0.90;;;;;;;21.19;30.59;98548.88;4978946;28;20718;-61
2021/05/25 09:20:41;;;;;;;15.25;1.60;;;;;;;20.83;26.92;98545.06;4980389;28;20535;-62
2021/05/25 09:23:06;;;;;;;;;;;;;;;20.84;29.05;98562.53;4977592;28;20061;-65
2021/05/25 09:25:33;;;;;;;3.25;0.60;;;;;;;20.65;28.78;98554.50;4975359;28;20012;-61
2021/05/25 09:28:00;;;;;;;4.28;0.80;;;;;;;20.61;29.09;98552.47;4993609;28;20032;-59
2021/05/25 09:30:29;;;;;;;3.83;0.90;;;;;;;20.46;29.20;98568.56;4981853;28;20134;-61
2021/05/25 09:33:05;;;;;;;3.05;1.00;;;;;;;20.95;28.75;98558.41;4976124;28;20054;-61
2021/05/25 09:35:33;;;;;;;3.58;0.90;;;;;;;20.86;30.65;98563.97;4963595;28;20034;-61
2021/05/25 09:38:00;;;;;;;4.22;1.55;;;;;;;20.84;30.81;98565.16;4983054;28;20026;-59
2021/05/25 09:40:28;;;;;;;5.15;1.77;;;;;;;20.47;30.57;98576.28;4977765;28;20034;-59
2021/05/25 09:43:10;;;;;;;3.97;1.25;;;;;;;20.04;31.73;98573.38;4968699;28;20033;-61
2021/05/25 09:45:36;;;;;;;3.50;0.95;;;;;;;19.88;31.23;98543.78;4978234;28;20037;-61
2021/05/25 09:48:04;;;;;;;7.32;0.93;;;;;;;19.62;30.00;98567.53;4978985;28;20034;-63
2021/05/25 09:50:29;;;;;;;2.55;0.90;;;;;;;19.00;28.34;98567.69;4979379;28;20026;-62
2021/05/25 09:53:11;;;;;;;2.53;0.88;;;;;;;18.80;24.62;98583.41;4976263;28;20030;-61
2021/05/25 09:55:57;;;;;;;2.55;0.73;;;;;;;18.73;25.12;98590.50;4990530;28;20109;-62
2021/05/25 09:58:31;;;;;;;2.20;0.77;;;;;;;18.86;26.22;98577.41;4975373;28;20321;-62
2021/05/25 10:00:57;;;;;;;3.55;0.80;;;;;;;18.47;25.71;98549.88;4977429;28;20117;-62
2021/05/25 10:03:26;;;;;;;3.33;0.80;;;;;;;18.85;25.34;98583.66;4970625;28;20146;-61
2021/05/25 10:05:53;;;;;;;1.83;0.68;;;;;;;18.75;25.97;98580.59;4973920;28;20100;-63
2021/05/25 10:08:22;;;;;;;2.28;0.70;;;;;;;18.69;27.33;98558.50;4974760;28;20030;-62
2021/05/25 10:10:49;;;;;;;3.38;1.20;;;;;;;18.85;21.60;98574.97;4955529;28;20022;-61
2021/05/25 10:13:15;;;;;;;3.67;0.60;;;;;;;18.85;21.88;98581.03;4975625;28;20068;-62
2021/05/25 10:15:42;;;;;;;5.70;1.30;;;;;;;18.67;21.69;98583.38;4981373;28;20030;-61
2021/05/25 10:18:27;;;;;;;2.05;0.60;;;;;;;18.87;20.56;98573.75;4981488;28;20077;-62
2021/05/25 10:20:53;;;;;;;1.73;0.50;;;;;;;18.82;15.37;98578.81;4991375;28;20039;-59
2021/05/25 10:23:19;;;;;;;2.22;0.60;;;;;;;18.96;18.90;98593.63;4965056;28;20069;-60
2021/05/25 10:25:47;;;;;;;1.60;0.60;;;;;;;18.78;16.13;98559.09;4976438;28;20070;-60
2021/05/25 10:28:13;;;;;;;1.83;0.50;;;;;;;19.10;16.64;98606.84;4974191;28;20050;-61
2021/05/25 10:30:44;;;;;;;2.00;0.52;;;;;;;19.18;17.43;98611.91;4974463;28;20027;-62
2021/05/25 10:33:09;;;;;;;3.38;0.60;;;;;;;19.19;16.63;98598.53;4979853;28;20038;-61
2021/05/25 10:35:57;;;;;;;2.05;0.68;;;;;;;19.34;14.74;98598.34;4980301;28;20094;-64
2021/05/25 10:38:43;;;;;;;2.30;0.60;;;;;;;19.33;16.29;98593.28;4976137;28;20037;-63
2021/05/25 10:41:08;;;;;;;3.22;0.60;;;;;;;19.26;13.51;98588.03;4966074;28;20200;-62
2021/05/25 10:43:42;;;;;;;2.80;0.45;;;;;;;19.26;16.72;98603.84;4979865;28;20554;-59
2021/05/25 10:46:15;;;;;;;0.80;0.30;;;;;;;19.15;14.66;98552.53;4979365;28;20026;-60
2021/05/25 10:49:14;;;;;;;1.38;0.50;;;;;;;19.46;14.66;98589.84;4981491;28;20074;-61
2021/05/25 10:54:31;;;;;;;1.98;0.65;;;;;;;19.39;17.76;98574.84;4977710;28;20030;-57
2021/05/25 10:57:00;;;;;;;1.95;0.60;;;;;;;19.36;16.45;98577.88;4985425;28;20147;-62
2021/05/25 10:59:26;;;;;;;2.83;0.65;;;;;;;19.47;18.98;98605.47;4977162;28;20050;-62
2021/05/25 11:01:59;;;;;;;2.17;0.50;;;;;;;19.27;12.74;98604.63;4978900;28;20034;-62
2021/05/25 11:04:44;;;;;;;2.17;0.50;;;;;;;19.19;14.07;98634.63;4978206;28;20030;-63
2021/05/25 11:07:35;;;;;;;3.50;0.82;;;;;;;19.35;14.82;98629.00;4978260;28;20042;-61
2021/05/25 11:10:36;;;;;;;2.42;0.82;;;;;;;19.44;12.51;98610.31;4971125;28;20363;-63
2021/05/25 11:13:14;;;;;;;2.97;0.77;;;;;;;19.38;12.96;98586.41;4977535;28;20589;-64
2021/05/25 11:16:14;;;;;;;1.77;0.50;;;;;;;19.37;12.24;98570.78;4978136;28;20046;-61
2021/05/25 11:21:44;;;;;;;2.05;0.50;;;;;;;19.42;12.53;98586.78;4978033;28;20679;-63
2021/05/25 11:24:32;;;;;;;1.20;0.40;;;;;;;19.51;15.73;98574.22;4974531;28;20022;-57
2021/05/25 11:27:06;;;;;;;2.58;0.70;;;;;;;19.49;12.05;98555.16;4979138;28;20565;-61
2021/05/25 11:29:34;;;;;;;2.13;0.40;;;;;;;19.29;13.42;98555.16;4978629;28;20723;-62
2021/05/25 11:32:27;;;;;;;3.28;0.75;;;;;;;19.39;12.15;98580.09;4975123;28;20203;-61
2021/05/25 11:35:05;;;;;;;1.52;0.40;;;;;;;19.60;13.60;98591.47;4961625;28;20196;-60
2021/05/25 11:37:33;;;;;;;2.50;0.60;;;;;;;19.61;13.58;98574.63;4992313;28;20122;-60
2021/05/25 11:39:59;;;;;;;1.40;0.50;;;;;;;19.61;13.57;98582.56;4979831;28;20134;-60
2021/05/25 11:42:30;;;;;;;3.25;0.50;;;;;;;19.26;11.04;98545.00;4983890;28;20217;-59
2021/05/25 11:44:56;;;;;;;3.45;1.05;;;;;;;19.67;13.94;98586.19;4975379;28;20094;-59
2021/05/25 11:47:23;;;;;;;2.03;0.50;;;;;;;19.65;10.51;98583.75;4981361;28;20054;-60